createdAt,value
2018-01-01T00:00:26.982Z,97.80
2018-01-01T00:01:30.311Z,97.70
2018-01-01T00:02:33.710Z,97.80
2018-01-01T00:03:37.864Z,97.80
2018-01-01T00:04:41.232Z,97.90
2018-01-01T00:05:44.637Z,98.10
2018-01-01T00:06:48.036Z,97.80
2018-01-01T00:07:51.397Z,97.80
2018-01-01T00:08:54.756Z,97.70
2018-01-01T00:09:58.125Z,97.80
2018-01-01T00:11:01.482Z,97.70
2018-01-01T00:12:04.852Z,97.70
2018-01-01T00:13:08.203Z,97.20
2018-01-01T00:14:12.337Z,97.60
2018-01-01T00:15:15.763Z,97.20
2018-01-01T00:16:19.124Z,97.30
2018-01-01T00:17:22.692Z,97.10
2018-01-01T00:18:26.925Z,96.60
2018-01-01T00:19:30.287Z,96.60
2018-01-01T00:20:34.412Z,96.50
2018-01-01T00:21:37.791Z,96.30
2018-01-01T00:22:41.140Z,96.30
2018-01-01T00:23:44.484Z,96.10
2018-01-01T00:24:47.909Z,96.30
2018-01-01T00:25:51.480Z,96.20
2018-01-01T00:26:55.037Z,96.20
2018-01-01T00:27:58.369Z,96.10
2018-01-01T00:29:01.724Z,96.10
2018-01-01T00:30:05.914Z,96.10
2018-01-01T00:31:09.268Z,96.10
2018-01-01T00:32:13.430Z,96.60
2018-01-01T00:33:16.764Z,96.30
2018-01-01T00:34:20.104Z,96.40
2018-01-01T00:35:23.447Z,96.40
2018-01-01T00:36:26.795Z,96.60
2018-01-01T00:37:30.217Z,96.40
2018-01-01T00:38:33.659Z,96.40
2018-01-01T00:39:36.974Z,96.40
2018-01-01T00:40:40.715Z,96.30
2018-01-01T00:41:44.070Z,96.20
2018-01-01T00:42:47.418Z,96.30
2018-01-01T00:43:50.805Z,96.50
2018-01-01T00:44:54.223Z,96.30
2018-01-01T00:45:57.618Z,96.10
2018-01-01T00:47:00.977Z,96.20
2018-01-01T00:48:05.132Z,96.30
2018-01-01T00:49:08.493Z,96.40
2018-01-01T00:50:11.871Z,96.50
2018-01-01T00:51:15.222Z,96.40
2018-01-01T00:52:18.561Z,96.20
2018-01-01T00:53:21.992Z,96.20
2018-01-01T00:54:25.430Z,96.20
2018-01-01T00:55:28.803Z,96.20
2018-01-01T00:56:32.143Z,96.20
2018-01-01T00:57:35.476Z,96.00
2018-01-01T00:58:38.864Z,96.00
2018-01-01T00:59:42.242Z,96.10
2018-01-01T01:00:45.566Z,96.30
2018-01-01T01:01:48.908Z,96.40
2018-01-01T01:02:53.165Z,96.40
2018-01-01T01:03:56.498Z,96.40
2018-01-01T01:04:59.917Z,96.50
2018-01-01T01:06:03.446Z,96.50
2018-01-01T01:07:06.867Z,96.30
2018-01-01T01:08:10.984Z,96.40
2018-01-01T01:09:14.388Z,96.40
2018-01-01T01:10:17.760Z,96.40
2018-01-01T01:11:21.135Z,96.50
2018-01-01T01:12:25.143Z,96.50
2018-01-01T01:13:28.488Z,96.70
2018-01-01T01:14:31.922Z,96.50
2018-01-01T01:15:35.257Z,96.60
2018-01-01T01:16:38.595Z,96.80
2018-01-01T01:17:41.938Z,96.50
2018-01-01T01:18:46.075Z,96.70
2018-01-01T01:19:50.197Z,96.00
2018-01-01T01:20:53.572Z,96.00
2018-01-01T01:21:56.904Z,96.10
2018-01-01T01:23:00.343Z,96.00
2018-01-01T01:24:03.856Z,96.10
2018-01-01T01:25:08.150Z,96.00
2018-01-01T01:26:11.477Z,96.20
2018-01-01T01:27:15.711Z,95.90
2018-01-01T01:28:19.806Z,95.60
2018-01-01T01:29:23.901Z,95.50
2018-01-01T01:30:28.128Z,95.50
2018-01-01T01:31:31.461Z,95.50
2018-01-01T01:32:34.812Z,95.40
2018-01-01T01:33:38.158Z,95.10
2018-01-01T01:34:41.580Z,95.20
2018-01-01T01:35:44.981Z,95.10
2018-01-01T01:36:48.316Z,94.40
2018-01-01T01:37:51.657Z,94.60
2018-01-01T01:38:55.025Z,94.60
2018-01-01T01:39:58.424Z,94.60
2018-01-01T01:41:01.771Z,94.40
2018-01-01T01:42:05.875Z,94.50
2018-01-01T01:43:10.008Z,94.50
2018-01-01T01:44:13.418Z,94.40
2018-01-01T01:45:16.781Z,94.40
2018-01-01T01:46:20.135Z,94.20
2018-01-01T01:47:24.231Z,93.90
2018-01-01T01:48:40.314Z,93.70
2018-01-01T01:49:43.667Z,93.70
2018-01-01T01:50:47.023Z,93.30
2018-01-01T01:51:50.396Z,93.40
2018-01-01T01:52:53.725Z,93.10
2018-01-01T01:53:57.065Z,92.80
2018-01-01T01:55:01.190Z,92.30
2018-01-01T01:56:04.580Z,92.20
2018-01-01T01:57:07.961Z,92.20
2018-01-01T01:58:11.428Z,92.20
2018-01-01T01:59:14.828Z,92.30
2018-01-01T02:00:18.154Z,92.00
2018-01-01T02:01:21.496Z,92.00
2018-01-01T02:02:24.851Z,92.00
2018-01-01T02:03:28.961Z,92.60
2018-01-01T02:04:33.056Z,92.10
2018-01-01T02:05:37.159Z,92.20
2018-01-01T02:06:41.307Z,92.40
2018-01-01T02:07:44.682Z,92.70
2018-01-01T02:08:48.012Z,92.60
2018-01-01T02:09:51.362Z,92.00
2018-01-01T02:10:54.689Z,92.10
2018-01-01T02:11:58.556Z,92.00
2018-01-01T02:13:01.913Z,91.90
2018-01-01T02:14:05.243Z,91.80
2018-01-01T02:15:08.586Z,91.90
2018-01-01T02:16:11.977Z,91.00
2018-01-01T02:17:15.353Z,91.40
2018-01-01T02:18:18.723Z,91.90
2018-01-01T02:19:22.827Z,91.50
2018-01-01T02:20:26.955Z,91.30
2018-01-01T02:21:30.292Z,91.30
2018-01-01T02:22:33.622Z,91.40
2018-01-01T02:23:37.004Z,91.20
2018-01-01T02:24:40.352Z,91.10
2018-01-01T02:25:43.688Z,91.20
2018-01-01T02:26:47.011Z,91.80
2018-01-01T02:27:50.344Z,90.80
2018-01-01T02:28:53.710Z,91.50
2018-01-01T02:29:57.936Z,90.60
2018-01-01T02:31:01.289Z,91.00
2018-01-01T02:32:16.580Z,90.20
2018-01-01T02:33:20.689Z,89.50
2018-01-01T02:34:24.823Z,89.80
2018-01-01T02:35:28.154Z,89.70
2018-01-01T02:36:31.496Z,90.00
2018-01-01T02:37:34.853Z,89.60
2018-01-01T02:38:38.257Z,90.00
2018-01-01T02:39:41.620Z,89.40
2018-01-01T02:40:44.970Z,89.10
2018-01-01T02:41:48.314Z,89.30
2018-01-01T02:42:51.652Z,89.70
2018-01-01T02:43:55.182Z,89.10
2018-01-01T02:44:58.542Z,90.30
2018-01-01T02:46:02.648Z,90.40
2018-01-01T02:47:06.742Z,90.60
2018-01-01T02:48:10.862Z,90.70
2018-01-01T02:49:14.209Z,90.70
2018-01-01T02:50:17.573Z,90.70
2018-01-01T02:51:20.909Z,90.80
2018-01-01T02:52:25.020Z,90.90
2018-01-01T02:53:29.144Z,90.70
2018-01-01T02:54:32.484Z,90.70
2018-01-01T02:55:35.848Z,90.60
2018-01-01T02:56:39.190Z,90.40
2018-01-01T02:57:42.599Z,90.50
2018-01-01T02:58:45.931Z,90.70
2018-01-01T02:59:50.038Z,90.80
2018-01-01T03:00:54.166Z,90.90
2018-01-01T03:01:58.432Z,90.70
2018-01-01T03:03:01.773Z,90.70
2018-01-01T03:04:05.154Z,90.30
2018-01-01T03:05:08.554Z,90.70
2018-01-01T03:06:11.894Z,90.20
2018-01-01T03:07:15.994Z,90.30
2018-01-01T03:08:20.100Z,90.50
2018-01-01T03:09:24.219Z,90.00
2018-01-01T03:10:27.561Z,89.30
2018-01-01T03:11:31.008Z,89.90
2018-01-01T03:12:34.347Z,89.70
2018-01-01T03:13:37.767Z,89.60
2018-01-01T03:14:41.096Z,89.60
2018-01-01T03:15:44.514Z,90.00
2018-01-01T03:16:47.874Z,90.00
2018-01-01T03:17:51.220Z,90.10
2018-01-01T03:18:54.670Z,90.10
2018-01-01T03:19:57.982Z,89.90
2018-01-01T03:21:01.319Z,89.80
2018-01-01T03:22:04.675Z,89.30
2018-01-01T03:23:08.002Z,89.30
2018-01-01T03:24:11.441Z,90.00
2018-01-01T03:25:14.759Z,90.00
2018-01-01T03:26:18.169Z,89.90
2018-01-01T03:27:21.520Z,90.00
2018-01-01T03:28:24.842Z,90.00
2018-01-01T03:29:28.277Z,90.00
2018-01-01T03:30:31.644Z,90.10
2018-01-01T03:31:34.985Z,90.10
2018-01-01T03:32:38.331Z,90.10
2018-01-01T03:33:41.666Z,90.10
2018-01-01T03:34:44.984Z,90.20
2018-01-01T03:35:48.314Z,90.30
2018-01-01T03:36:51.656Z,90.40
2018-01-01T03:37:55.008Z,90.40
2018-01-01T03:38:58.355Z,90.30
2018-01-01T03:40:01.680Z,90.40
2018-01-01T03:41:05.196Z,90.30
2018-01-01T03:42:08.588Z,90.50
2018-01-01T03:43:11.961Z,90.40
2018-01-01T03:44:16.072Z,90.40
2018-01-01T03:45:20.163Z,90.30
2018-01-01T03:46:24.291Z,90.30
2018-01-01T03:47:27.611Z,90.30
2018-01-01T03:48:31.067Z,90.50
2018-01-01T03:49:34.409Z,90.30
2018-01-01T03:50:37.740Z,90.30
2018-01-01T03:51:41.078Z,89.80
2018-01-01T03:52:44.600Z,89.60
2018-01-01T03:53:47.959Z,88.90
2018-01-01T03:54:52.063Z,89.90
2018-01-01T03:55:55.478Z,89.40
2018-01-01T03:56:58.819Z,88.70
2018-01-01T03:58:02.216Z,89.20
2018-01-01T03:59:05.626Z,88.90
2018-01-01T04:00:09.724Z,88.90
2018-01-01T04:01:13.820Z,88.90
2018-01-01T04:02:17.947Z,88.70
2018-01-01T04:03:21.286Z,88.70
2018-01-01T04:04:24.718Z,88.90
2018-01-01T04:05:28.091Z,88.90
2018-01-01T04:06:32.191Z,88.70
2018-01-01T04:07:36.287Z,89.20
2018-01-01T04:08:40.383Z,89.40
2018-01-01T04:09:43.759Z,89.30
2018-01-01T04:10:47.091Z,89.40
2018-01-01T04:11:50.412Z,89.00
2018-01-01T04:12:53.738Z,88.90
2018-01-01T04:13:57.161Z,89.00
2018-01-01T04:15:00.619Z,88.40
2018-01-01T04:16:04.928Z,89.10
2018-01-01T04:17:08.241Z,89.10
2018-01-01T04:18:11.566Z,89.00
2018-01-01T04:19:14.930Z,86.80
2018-01-01T04:20:18.389Z,87.40
2018-01-01T04:21:21.715Z,87.40
2018-01-01T04:22:25.057Z,88.20
2018-01-01T04:23:28.380Z,86.90
2018-01-01T04:24:31.718Z,86.60
2018-01-01T04:25:35.078Z,86.30
2018-01-01T04:26:38.509Z,86.40
2018-01-01T04:27:41.931Z,85.90
2018-01-01T04:28:45.279Z,86.20
2018-01-01T04:29:48.617Z,86.40
2018-01-01T04:30:52.057Z,86.40
2018-01-01T04:31:55.384Z,86.00
2018-01-01T04:32:58.804Z,86.20
2018-01-01T04:34:02.934Z,86.80
2018-01-01T04:35:06.234Z,86.80
2018-01-01T04:36:09.587Z,86.80
2018-01-01T04:37:12.919Z,86.30
2018-01-01T04:38:16.243Z,86.80
2018-01-01T04:39:20.344Z,87.10
2018-01-01T04:40:23.673Z,87.10
2018-01-01T04:41:27.302Z,86.90
2018-01-01T04:42:30.662Z,87.20
2018-01-01T04:43:34.230Z,87.40
2018-01-01T04:44:37.560Z,87.30
2018-01-01T04:45:40.905Z,87.30
2018-01-01T04:46:44.276Z,86.70
2018-01-01T04:47:47.648Z,86.50
2018-01-01T04:48:51.735Z,87.20
2018-01-01T04:49:55.830Z,87.30
2018-01-01T04:50:59.256Z,87.20
2018-01-01T04:52:02.594Z,87.50
2018-01-01T04:54:15.546Z,87.70
2018-01-01T04:55:19.600Z,87.80
2018-01-01T04:56:22.924Z,87.30
2018-01-01T04:57:27.040Z,87.40
2018-01-01T04:58:30.366Z,87.40
2018-01-01T04:59:33.730Z,87.90
2018-01-01T05:00:37.053Z,88.00
2018-01-01T05:01:40.375Z,87.90
2018-01-01T05:02:44.478Z,88.00
2018-01-01T05:03:47.808Z,88.00
2018-01-01T05:04:51.258Z,87.90
2018-01-01T05:05:54.582Z,88.20
2018-01-01T05:06:57.924Z,88.10
2018-01-01T05:08:01.280Z,88.00
2018-01-01T05:09:04.627Z,88.40
2018-01-01T05:10:07.956Z,88.20
2018-01-01T05:11:11.289Z,88.20
2018-01-01T05:12:14.730Z,88.10
2018-01-01T05:13:18.082Z,88.30
2018-01-01T05:14:21.394Z,87.90
2018-01-01T05:15:24.728Z,87.40
2018-01-01T05:16:28.096Z,87.10
2018-01-01T05:17:31.429Z,88.10
2018-01-01T05:18:34.970Z,87.30
2018-01-01T05:19:38.311Z,87.70
2018-01-01T05:20:41.742Z,87.20
2018-01-01T05:21:45.139Z,87.30
2018-01-01T05:22:48.528Z,87.60
2018-01-01T05:23:52.031Z,87.60
2018-01-01T05:24:55.352Z,87.80
2018-01-01T05:25:59.134Z,88.00
2018-01-01T05:27:02.456Z,88.90
2018-01-01T05:28:06.542Z,89.70
2018-01-01T05:29:09.886Z,89.60
2018-01-01T05:30:13.295Z,90.00
2018-01-01T05:31:16.615Z,90.40
2018-01-01T05:32:20.699Z,91.30
2018-01-01T05:33:24.139Z,91.30
2018-01-01T05:34:27.503Z,91.60
2018-01-01T05:35:30.912Z,91.80
2018-01-01T05:36:34.395Z,91.70
2018-01-01T05:37:37.726Z,91.40
2018-01-01T05:38:41.055Z,91.00
2018-01-01T05:39:44.552Z,90.30
2018-01-01T05:40:47.918Z,90.50
2018-01-01T05:41:52.125Z,90.50
2018-01-01T05:42:56.214Z,90.50
2018-01-01T05:44:00.353Z,90.60
2018-01-01T05:45:03.828Z,90.80
2018-01-01T05:46:07.167Z,90.70
2018-01-01T05:47:10.497Z,90.70
2018-01-01T05:48:13.823Z,90.50
2018-01-01T05:49:17.156Z,90.40
2018-01-01T05:50:20.554Z,90.50
2018-01-01T05:51:24.139Z,90.50
2018-01-01T05:52:27.451Z,90.50
2018-01-01T05:53:30.816Z,90.40
2018-01-01T05:54:34.168Z,90.50
2018-01-01T05:55:37.520Z,90.50
2018-01-01T05:56:40.848Z,90.70
2018-01-01T05:57:44.184Z,90.40
2018-01-01T05:58:47.550Z,90.00
2018-01-01T05:59:50.934Z,90.10
2018-01-01T06:00:54.303Z,90.30
2018-01-01T06:01:58.401Z,90.00
2018-01-01T06:03:02.487Z,89.40
2018-01-01T06:04:05.815Z,89.30
2018-01-01T06:05:09.299Z,89.40
2018-01-01T06:06:12.685Z,88.80
2018-01-01T06:07:15.969Z,88.50
2018-01-01T06:08:19.372Z,88.90
2018-01-01T06:09:22.948Z,89.00
2018-01-01T06:10:26.349Z,88.90
2018-01-01T06:11:29.686Z,88.90
2018-01-01T06:12:33.827Z,88.10
2018-01-01T06:13:37.234Z,88.60
2018-01-01T06:14:40.642Z,88.40
2018-01-01T06:15:43.976Z,88.60
2018-01-01T06:16:47.357Z,88.60
2018-01-01T06:17:50.694Z,87.60
2018-01-01T06:18:54.027Z,87.90
2018-01-01T06:19:57.359Z,87.80
2018-01-01T06:21:01.507Z,87.70
2018-01-01T06:22:05.178Z,86.90
2018-01-01T06:23:08.738Z,86.80
2018-01-01T06:24:12.393Z,87.10
2018-01-01T06:25:16.471Z,87.60
2018-01-01T06:26:20.129Z,87.00
2018-01-01T06:27:23.736Z,86.30
2018-01-01T06:28:27.135Z,86.30
2018-01-01T06:29:30.475Z,86.10
2018-01-01T06:30:33.800Z,86.20
2018-01-01T06:31:39.112Z,85.50
2018-01-01T06:32:43.353Z,85.60
2018-01-01T06:33:47.470Z,85.40
2018-01-01T06:34:51.587Z,85.60
2018-01-01T06:35:55.062Z,85.40
2018-01-01T06:36:59.187Z,85.70
2018-01-01T06:38:02.574Z,85.60
2018-01-01T06:39:05.911Z,85.60
2018-01-01T06:40:09.244Z,85.90
2018-01-01T06:41:12.617Z,86.00
2018-01-01T06:42:16.244Z,85.70
2018-01-01T06:43:20.414Z,86.10
2018-01-01T06:44:24.084Z,86.10
2018-01-01T06:45:27.480Z,86.50
2018-01-01T06:46:31.587Z,86.80
2018-01-01T06:47:35.822Z,87.40
2018-01-01T06:48:39.151Z,87.20
2018-01-01T06:49:42.535Z,87.10
2018-01-01T06:50:45.941Z,87.70
2018-01-01T06:51:49.352Z,87.80
2018-01-01T06:52:52.694Z,88.20
2018-01-01T06:53:56.133Z,88.00
2018-01-01T06:54:59.457Z,88.30
2018-01-01T06:56:02.895Z,88.50
2018-01-01T06:57:06.479Z,88.70
2018-01-01T06:58:10.588Z,89.40
2018-01-01T06:59:14.801Z,90.20
2018-01-01T07:00:18.126Z,90.20
2018-01-01T07:01:21.519Z,90.70
2018-01-01T07:02:24.848Z,91.40
2018-01-01T07:03:28.946Z,92.30
2018-01-01T07:04:33.489Z,92.90
2018-01-01T07:05:36.810Z,92.90
2018-01-01T07:06:40.259Z,93.20
2018-01-01T07:07:43.571Z,93.60
2018-01-01T07:08:46.902Z,94.20
2018-01-01T07:09:51.027Z,94.90
2018-01-01T07:10:54.474Z,94.80
2018-01-01T07:11:57.797Z,94.90
2018-01-01T07:13:01.136Z,94.90
2018-01-01T07:14:04.447Z,95.10
2018-01-01T07:15:08.574Z,95.50
2018-01-01T07:16:11.897Z,95.50
2018-01-01T07:17:15.353Z,95.30
2018-01-01T07:18:18.704Z,95.30
2018-01-01T07:19:22.797Z,95.10
2018-01-01T07:20:26.139Z,95.10
2018-01-01T07:21:29.455Z,94.90
2018-01-01T07:22:32.777Z,94.80
2018-01-01T07:23:36.103Z,94.80
2018-01-01T07:24:39.570Z,94.40
2018-01-01T07:25:42.904Z,94.30
2018-01-01T07:26:46.237Z,94.30
2018-01-01T07:27:49.582Z,94.20
2018-01-01T07:28:53.689Z,93.60
2018-01-01T07:29:57.034Z,93.60
2018-01-01T07:31:00.404Z,93.50
2018-01-01T07:32:03.824Z,93.80
2018-01-01T07:33:07.175Z,93.40
2018-01-01T07:34:10.505Z,93.40
2018-01-01T07:35:13.928Z,93.20
2018-01-01T07:36:17.289Z,93.10
2018-01-01T07:37:20.624Z,93.00
2018-01-01T07:38:24.034Z,93.40
2018-01-01T07:39:27.373Z,93.20
2018-01-01T07:40:30.734Z,93.20
2018-01-01T07:41:34.075Z,93.20
2018-01-01T07:42:37.400Z,93.30
2018-01-01T07:43:41.500Z,93.80
2018-01-01T07:44:45.023Z,93.40
2018-01-01T07:45:48.359Z,93.50
2018-01-01T07:46:52.594Z,93.60
2018-01-01T07:47:56.701Z,93.50
2018-01-01T07:49:00.819Z,93.50
2018-01-01T07:50:04.148Z,93.50
2018-01-01T07:51:07.474Z,93.30
2018-01-01T07:52:10.831Z,93.40
2018-01-01T07:53:14.149Z,93.60
2018-01-01T07:54:17.495Z,93.60
2018-01-01T07:55:20.826Z,93.60
2018-01-01T07:56:24.280Z,93.70
2018-01-01T07:57:27.630Z,93.90
2018-01-01T07:58:30.972Z,93.80
2018-01-01T07:59:34.442Z,93.90
2018-01-01T08:00:38.495Z,93.90
2018-01-01T08:01:41.825Z,93.80
2018-01-01T08:02:45.164Z,94.00
2018-01-01T08:03:48.508Z,93.90
2018-01-01T08:04:52.319Z,94.10
2018-01-01T08:05:56.411Z,94.20
2018-01-01T08:07:00.508Z,94.30
2018-01-01T08:08:03.861Z,94.20
2018-01-01T08:09:07.183Z,94.30
2018-01-01T08:10:11.295Z,94.40
2018-01-01T08:11:15.390Z,94.50
2018-01-01T08:12:19.492Z,94.40
2018-01-01T08:13:22.842Z,94.30
2018-01-01T08:14:26.171Z,94.40
2018-01-01T08:15:30.266Z,94.60
2018-01-01T08:16:34.399Z,94.70
2018-01-01T08:17:37.922Z,94.80
2018-01-01T08:18:41.392Z,94.80
2018-01-01T08:19:44.832Z,95.00
2018-01-01T08:20:48.249Z,95.10
2018-01-01T08:21:51.567Z,95.20
2018-01-01T08:22:54.899Z,95.20
2018-01-01T08:23:59.030Z,95.50
2018-01-01T08:25:02.362Z,95.50
2018-01-01T08:26:05.671Z,95.60
2018-01-01T08:27:09.500Z,95.70
2018-01-01T08:28:12.833Z,95.80
2018-01-01T08:29:16.265Z,96.20
2018-01-01T08:30:19.684Z,96.30
2018-01-01T08:31:23.015Z,96.30
2018-01-01T08:32:26.420Z,96.40
2018-01-01T08:33:29.769Z,96.30
2018-01-01T08:34:33.307Z,96.30
2018-01-01T08:35:36.622Z,96.30
2018-01-01T08:36:39.979Z,96.40
2018-01-01T08:37:43.387Z,96.40
2018-01-01T08:38:46.712Z,96.30
2018-01-01T08:39:52.160Z,96.50
2018-01-01T08:40:56.230Z,96.00
2018-01-01T08:41:59.664Z,95.90
2018-01-01T08:43:02.984Z,96.20
2018-01-01T08:44:07.170Z,96.40
2018-01-01T08:45:10.530Z,97.00
2018-01-01T08:46:13.906Z,97.50
2018-01-01T08:47:17.195Z,97.50
2018-01-01T08:48:20.525Z,97.80
2018-01-01T08:49:23.845Z,98.10
2018-01-01T08:50:27.303Z,98.70
2018-01-01T08:51:30.644Z,98.60
2018-01-01T08:52:34.028Z,99.00
2018-01-01T08:53:37.425Z,98.50
2018-01-01T08:54:40.755Z,98.20
2018-01-01T08:55:44.160Z,98.40
2018-01-01T08:56:47.497Z,98.80
2018-01-01T08:57:50.923Z,99.30
2018-01-01T08:58:54.257Z,99.50
2018-01-01T08:59:57.590Z,99.50
2018-01-01T09:01:01.028Z,99.90
2018-01-01T09:02:04.355Z,99.90
2018-01-01T09:03:07.684Z,99.90
2018-01-01T09:04:11.776Z,99.90
2018-01-01T09:05:15.103Z,99.90
2018-01-01T09:06:18.445Z,99.80
2018-01-01T09:07:22.540Z,99.90
2018-01-01T09:08:26.701Z,99.90
2018-01-01T09:09:30.059Z,99.90
2018-01-01T09:10:33.446Z,99.90
2018-01-01T09:11:37.032Z,99.90
2018-01-01T09:12:41.159Z,99.90
2018-01-01T09:13:44.693Z,99.90
2018-01-01T09:14:48.120Z,99.90
2018-01-01T09:15:51.502Z,99.90
2018-01-01T09:16:54.955Z,99.90
2018-01-01T09:17:58.291Z,99.90
2018-01-01T09:19:01.616Z,99.90
2018-01-01T09:20:05.048Z,99.90
2018-01-01T09:21:08.367Z,99.90
2018-01-01T09:22:11.718Z,99.90
2018-01-01T09:23:15.296Z,99.90
2018-01-01T09:24:19.386Z,99.90
2018-01-01T09:25:22.815Z,99.90
2018-01-01T09:26:26.288Z,99.90
2018-01-01T09:27:29.764Z,99.90
2018-01-01T09:28:33.944Z,99.80
2018-01-01T09:29:37.561Z,99.90
2018-01-01T09:30:42.052Z,99.90
2018-01-01T09:31:45.421Z,99.90
2018-01-01T09:32:48.780Z,99.90
2018-01-01T09:33:52.102Z,99.90
2018-01-01T09:34:55.481Z,99.90
2018-01-01T09:35:59.013Z,99.90
2018-01-01T09:37:02.369Z,99.90
2018-01-01T09:38:06.091Z,99.60
2018-01-01T09:39:09.420Z,99.60
2018-01-01T09:40:12.739Z,99.60
2018-01-01T09:41:16.830Z,99.30
2018-01-01T09:42:20.367Z,99.30
2018-01-01T09:43:25.058Z,99.10
2018-01-01T09:44:29.191Z,98.90
2018-01-01T09:45:32.511Z,98.90
2018-01-01T09:46:35.842Z,98.60
2018-01-01T09:47:39.250Z,98.20
2018-01-01T09:48:42.592Z,98.00
2018-01-01T09:49:46.476Z,98.20
2018-01-01T09:50:49.788Z,98.30
2018-01-01T09:51:53.876Z,98.20
2018-01-01T09:52:57.216Z,98.10
2018-01-01T09:54:00.674Z,98.30
2018-01-01T09:55:04.794Z,98.50
2018-01-01T09:56:08.129Z,98.40
2018-01-01T09:57:11.543Z,98.30
2018-01-01T09:58:15.630Z,98.10
2018-01-01T09:59:19.025Z,98.00
2018-01-01T10:00:22.350Z,98.10
2018-01-01T10:01:25.678Z,98.40
2018-01-01T10:02:29.024Z,98.60
2018-01-01T10:03:32.351Z,98.70
2018-01-01T10:04:35.776Z,98.20
2018-01-01T10:05:39.156Z,97.40
2018-01-01T10:06:42.490Z,97.40
2018-01-01T10:07:45.822Z,97.30
2018-01-01T10:08:50.031Z,97.50
2018-01-01T10:09:53.389Z,97.40
2018-01-01T10:10:56.740Z,97.70
2018-01-01T10:12:00.071Z,97.40
2018-01-01T10:13:04.186Z,97.50
2018-01-01T10:14:08.280Z,97.70
2018-01-01T10:15:12.503Z,97.10
2018-01-01T10:16:15.855Z,97.10
2018-01-01T10:17:19.252Z,97.30
2018-01-01T10:18:23.482Z,97.10
2018-01-01T10:19:26.831Z,96.70
2018-01-01T10:20:30.181Z,96.70
2018-01-01T10:21:33.517Z,96.90
2018-01-01T10:22:37.743Z,96.80
2018-01-01T10:23:41.151Z,96.70
2018-01-01T10:24:44.508Z,96.80
2018-01-01T10:25:48.612Z,96.70
2018-01-01T10:26:52.051Z,96.70
2018-01-01T10:27:55.385Z,96.60
2018-01-01T10:28:58.706Z,96.30
2018-01-01T10:30:02.061Z,96.10
2018-01-01T10:31:06.319Z,95.90
2018-01-01T10:32:09.630Z,95.90
2018-01-01T10:33:13.764Z,95.90
2018-01-01T10:34:17.168Z,95.90
2018-01-01T10:35:20.518Z,95.90
2018-01-01T10:36:24.737Z,95.30
2018-01-01T10:37:28.115Z,95.30
2018-01-01T10:38:31.444Z,95.10
2018-01-01T10:39:34.821Z,95.30
2018-01-01T10:40:38.222Z,94.40
2018-01-01T10:41:41.556Z,94.50
2018-01-01T10:42:44.954Z,94.10
2018-01-01T10:43:48.309Z,93.80
2018-01-01T10:44:51.624Z,93.70
2018-01-01T10:45:54.958Z,93.60
2018-01-01T10:46:58.299Z,93.70
2018-01-01T10:48:01.682Z,93.60
2018-01-01T10:49:05.123Z,93.40
2018-01-01T10:50:08.450Z,93.50
2018-01-01T10:51:11.795Z,93.40
2018-01-01T10:52:15.138Z,93.30
2018-01-01T10:53:18.562Z,93.20
2018-01-01T10:54:22.008Z,93.00
2018-01-01T10:55:25.354Z,92.80
2018-01-01T10:56:28.698Z,92.20
2018-01-01T10:57:32.039Z,92.30
2018-01-01T10:58:36.140Z,92.30
2018-01-01T10:59:40.273Z,91.90
2018-01-01T11:00:43.584Z,91.90
2018-01-01T11:01:46.915Z,92.20
2018-01-01T11:02:51.040Z,92.00
2018-01-01T11:03:54.424Z,92.00
2018-01-01T11:04:57.747Z,92.00
2018-01-01T11:06:01.169Z,91.20
2018-01-01T11:07:04.527Z,91.50
2018-01-01T11:08:07.912Z,91.50
2018-01-01T11:09:11.259Z,90.90
2018-01-01T11:10:14.625Z,91.20
2018-01-01T11:11:18.030Z,91.20
2018-01-01T11:12:21.397Z,91.00
2018-01-01T11:13:25.523Z,90.70
2018-01-01T11:14:28.895Z,90.70
2018-01-01T11:15:32.237Z,90.50
2018-01-01T11:16:35.676Z,90.30
2018-01-01T11:17:39.500Z,90.20
2018-01-01T11:18:42.866Z,90.10
2018-01-01T11:19:46.182Z,90.30
2018-01-01T11:20:49.531Z,89.20
2018-01-01T11:21:52.872Z,89.70
2018-01-01T11:22:56.195Z,89.80
2018-01-01T11:23:59.541Z,88.60
2018-01-01T11:25:02.968Z,88.90
2018-01-01T11:26:06.293Z,88.40
2018-01-01T11:27:09.624Z,87.70
2018-01-01T11:28:13.094Z,87.20
2018-01-01T11:29:17.375Z,86.90
2018-01-01T11:30:20.708Z,86.70
2018-01-01T11:31:24.056Z,85.30
2018-01-01T11:32:27.389Z,84.20
2018-01-01T11:33:30.719Z,83.60
2018-01-01T11:34:34.080Z,83.20
2018-01-01T11:35:37.390Z,81.80
2018-01-01T11:36:40.827Z,81.30
2018-01-01T11:37:44.170Z,81.20
2018-01-01T11:38:47.486Z,80.60
2018-01-01T11:39:51.664Z,81.10
2018-01-01T11:40:54.974Z,81.10
2018-01-01T11:41:59.074Z,79.70
2018-01-01T11:43:03.194Z,81.00
2018-01-01T11:44:06.703Z,81.00
2018-01-01T11:45:10.055Z,80.00
2018-01-01T11:46:13.455Z,80.40
2018-01-01T11:47:16.809Z,79.90
2018-01-01T11:48:20.148Z,80.50
2018-01-01T11:49:23.515Z,80.80
2018-01-01T11:50:26.880Z,81.90
2018-01-01T11:51:30.218Z,83.00
2018-01-01T11:52:33.581Z,82.60
2018-01-01T11:53:36.905Z,81.70
2018-01-01T11:54:41.055Z,81.10
2018-01-01T11:55:44.547Z,81.00
2018-01-01T11:56:48.637Z,80.60
2018-01-01T11:57:52.737Z,80.30
2018-01-01T11:58:56.848Z,80.50
2018-01-01T12:00:01.061Z,82.80
2018-01-01T12:01:04.454Z,82.00
2018-01-01T12:02:07.936Z,81.80
2018-01-01T12:03:11.265Z,81.90
2018-01-01T12:04:14.714Z,81.70
2018-01-01T12:05:18.093Z,82.20
2018-01-01T12:06:21.435Z,81.60
2018-01-01T12:07:24.877Z,81.90
2018-01-01T12:08:28.245Z,82.40
2018-01-01T12:09:31.635Z,82.10
2018-01-01T12:10:34.975Z,82.60
2018-01-01T12:11:38.322Z,83.10
2018-01-01T12:12:41.642Z,83.00
2018-01-01T12:13:44.973Z,83.70
2018-01-01T12:14:49.052Z,83.90
2018-01-01T12:15:52.380Z,83.80
2018-01-01T12:16:55.748Z,85.60
2018-01-01T12:17:59.834Z,84.50
2018-01-01T12:19:03.928Z,84.20
2018-01-01T12:20:07.332Z,84.20
2018-01-01T12:21:11.410Z,83.30
2018-01-01T12:22:14.785Z,82.70
2018-01-01T12:23:18.218Z,82.90
2018-01-01T12:24:21.609Z,83.20
2018-01-01T12:25:24.972Z,83.60
2018-01-01T12:26:29.105Z,83.90
2018-01-01T12:27:32.476Z,83.80
2018-01-01T12:28:36.563Z,83.80
2018-01-01T12:29:40.677Z,84.20
2018-01-01T12:30:44.816Z,84.30
2018-01-01T12:31:48.114Z,84.30
2018-01-01T12:32:51.483Z,84.30
2018-01-01T12:33:54.813Z,84.20
2018-01-01T12:34:58.153Z,83.80
2018-01-01T12:36:01.475Z,85.80
2018-01-01T12:37:04.819Z,84.60
2018-01-01T12:38:08.192Z,84.60
2018-01-01T12:39:11.578Z,84.70
2018-01-01T12:40:14.923Z,84.40
2018-01-01T12:41:18.446Z,84.70
2018-01-01T12:42:22.547Z,84.90
2018-01-01T12:43:26.006Z,84.90
2018-01-01T12:44:29.363Z,84.70
2018-01-01T12:45:32.703Z,84.70
2018-01-01T12:46:36.893Z,85.80
2018-01-01T12:47:40.316Z,85.70
2018-01-01T12:48:43.700Z,85.50
2018-01-01T12:49:47.043Z,85.70
2018-01-01T12:50:50.434Z,85.40
2018-01-01T12:51:54.527Z,85.90
2018-01-01T12:52:57.870Z,85.90
2018-01-01T12:54:01.288Z,86.10
2018-01-01T12:55:04.627Z,88.60
2018-01-01T12:56:08.016Z,90.10
2018-01-01T12:57:11.348Z,88.50
2018-01-01T12:58:14.684Z,87.10
2018-01-01T12:59:18.093Z,85.80
2018-01-01T13:00:21.427Z,85.80
2018-01-01T13:01:24.871Z,87.90
2018-01-01T13:02:28.217Z,87.60
2018-01-01T13:03:31.619Z,86.90
2018-01-01T13:04:34.990Z,87.20
2018-01-01T13:05:39.078Z,88.50
2018-01-01T13:06:43.207Z,87.50
2018-01-01T13:07:46.554Z,87.50
2018-01-01T13:08:49.997Z,88.30
2018-01-01T13:09:53.359Z,87.90
2018-01-01T13:10:57.452Z,89.80
2018-01-01T13:12:01.594Z,89.40
2018-01-01T13:13:04.935Z,89.30
2018-01-01T13:14:08.268Z,88.10
2018-01-01T13:15:12.547Z,89.60
2018-01-01T13:16:17.727Z,89.80
2018-01-01T13:17:21.219Z,88.50
2018-01-01T13:18:24.574Z,87.90
2018-01-01T13:19:27.920Z,89.80
2018-01-01T13:20:32.038Z,89.10
2018-01-01T13:21:35.386Z,88.10
2018-01-01T13:22:38.709Z,88.80
2018-01-01T13:23:42.049Z,89.00
2018-01-01T13:24:45.476Z,89.10
2018-01-01T13:25:49.782Z,89.40
2018-01-01T13:26:53.891Z,90.10
2018-01-01T13:27:57.229Z,90.10
2018-01-01T13:29:00.569Z,90.30
2018-01-01T13:30:03.909Z,90.70
2018-01-01T13:31:07.344Z,90.00
2018-01-01T13:32:11.387Z,90.40
2018-01-01T13:33:14.738Z,90.40
2018-01-01T13:34:18.072Z,90.30
2018-01-01T13:35:21.396Z,90.60
2018-01-01T13:36:24.759Z,90.80
2018-01-01T13:37:28.161Z,90.80
2018-01-01T13:38:32.472Z,90.50
2018-01-01T13:39:35.828Z,90.50